Time;durP1;ratioP1;P1;durP2;ratioP2;P2;SDS_P1;SDS_P2;PMS_P1;PMS_P2;Temp;Humidity;BMP_temperature;BMP_pressure;BME280_temperature;BME280_humidity;BME280_pressure;Samples;Min_cycle;Max_cycle;Signal;HPM_P1;HPM_P2
2022/07/02 00:00:05;;;;;;;6.00;2.47;;;13.90;99.90;;;;;;5039655;28;20580;-79
2022/07/02 00:02:35;;;;;;;5.97;2.70;;;13.90;99.90;;;;;;5056605;28;20133;-80
2022/07/02 00:05:06;;;;;;;4.90;2.90;;;13.90;99.90;;;;;;5055548;28;20510;-79
2022/07/02 00:07:32;;;;;;;4.43;2.90;;;13.90;99.90;;;;;;5039727;28;20033;-80
2022/07/02 00:09:59;;;;;;;4.07;2.70;;;13.90;99.90;;;;;;5055264;28;20046;-80
2022/07/02 00:12:26;;;;;;;5.30;2.80;;;13.90;99.90;;;;;;5041284;28;20465;-80
2022/07/02 00:14:55;;;;;;;4.63;2.83;;;13.80;99.90;;;;;;5076343;28;20380;-80
2022/07/02 00:17:22;;;;;;;3.83;2.85;;;13.70;99.90;;;;;;5075745;28;20033;-80
2022/07/02 00:19:48;;;;;;;6.10;2.88;;;13.80;99.90;;;;;;5041713;28;20036;-80
2022/07/02 00:22:15;;;;;;;6.03;2.72;;;13.80;99.90;;;;;;5057507;28;20053;-80
2022/07/02 00:24:41;;;;;;;6.43;2.45;;;13.70;99.90;;;;;;5041320;28;20037;-80
2022/07/02 00:27:15;;;;;;;5.50;3.40;;;13.60;99.90;;;;;;5040735;28;20044;-80
2022/07/02 00:30:03;;;;;;;5.43;3.20;;;13.60;99.90;;;;;;5040373;28;20087;-80
2022/07/02 00:32:30;;;;;;;8.00;3.38;;;13.60;99.90;;;;;;5057902;28;20040;-80
2022/07/02 00:34:57;;;;;;;4.15;2.90;;;13.50;99.90;;;;;;5075309;28;20499;-80
2022/07/02 00:37:25;;;;;;;12.52;3.78;;;13.60;99.90;;;;;;5041610;28;20072;-80
2022/07/02 00:39:51;;;;;;;7.20;3.47;;;13.60;99.90;;;;;;5075500;28;20037;-80
2022/07/02 00:42:18;;;;;;;5.32;2.83;;;13.50;99.90;;;;;;5057121;28;20051;-80
2022/07/02 00:44:47;;;;;;;5.90;3.72;;;13.50;99.90;;;;;;5056872;28;20036;-80
2022/07/02 00:47:14;;;;;;;5.63;3.70;;;13.50;99.90;;;;;;5055728;28;20072;-80
2022/07/02 00:49:39;;;;;;;5.43;3.38;;;13.50;99.90;;;;;;5055141;28;20166;-80
2022/07/02 00:52:06;;;;;;;5.30;3.13;;;13.40;99.90;;;;;;5039255;28;20064;-80
2022/07/02 00:54:32;;;;;;;4.45;3.30;;;13.40;99.90;;;;;;5055655;28;20563;-80
2022/07/02 00:56:58;;;;;;;6.50;3.00;;;13.40;99.90;;;;;;5073531;28;20102;-79
2022/07/02 00:59:25;;;;;;;5.55;3.30;;;13.40;99.90;;;;;;5073243;28;20406;-80
2022/07/02 01:01:51;;;;;;;5.97;3.28;;;13.40;99.90;;;;;;5055160;28;20036;-80
2022/07/02 01:04:19;;;;;;;10.00;3.30;;;13.40;99.90;;;;;;5054141;28;20052;-78
2022/07/02 01:06:47;;;;;;;4.28;3.05;;;13.30;99.90;;;;;;5053539;28;20090;-77
2022/07/02 01:12:00;;;;;;;5.28;3.00;;;13.30;99.90;;;;;;5053393;28;20084;-78
2022/07/02 01:14:27;;;;;;;6.65;3.33;;;13.30;99.90;;;;;;5071293;28;20127;-79
2022/07/02 01:16:53;;;;;;;3.42;2.92;;;13.40;99.90;;;;;;5053219;28;20594;-78
2022/07/02 01:19:19;;;;;;;5.85;3.20;;;13.40;99.90;;;;;;5053475;28;20123;-78
2022/07/02 01:22:18;;;;;;;7.13;2.83;;;13.40;99.90;;;;;;5036133;28;20044;-78
2022/07/02 01:24:52;;;;;;;6.10;3.42;;;13.30;99.90;;;;;;5053071;28;20049;-80
2022/07/02 01:27:19;;;;;;;10.05;2.95;;;13.20;99.90;;;;;;5054454;28;20450;-80
2022/07/02 01:29:46;;;;;;;5.43;3.22;;;13.20;99.90;;;;;;5074588;28;20094;-80
2022/07/02 01:32:12;;;;;;;4.15;3.38;;;13.10;99.90;;;;;;5075295;28;20044;-81
2022/07/02 01:34:49;;;;;;;9.80;3.55;;;13.20;99.90;;;;;;5057476;28;20040;-81
2022/07/02 01:37:18;;;;;;;5.28;3.13;;;13.20;99.90;;;;;;5039459;28;20475;-80
2022/07/02 01:39:45;;;;;;;6.80;3.15;;;13.20;99.90;;;;;;5056546;28;20119;-81
2022/07/02 01:42:11;;;;;;;3.20;2.90;;;13.20;99.90;;;;;;5047534;28;20040;-79
2022/07/02 01:44:38;;;;;;;8.02;3.42;;;13.10;99.90;;;;;;5078304;28;20044;-84
2022/07/02 01:47:06;;;;;;;6.38;3.53;;;13.20;99.90;;;;;;5078038;28;20048;-83
2022/07/02 01:49:32;;;;;;;6.55;3.50;;;13.10;99.90;;;;;;5054266;28;20044;-82
2022/07/02 01:51:58;;;;;;;6.47;3.45;;;13.10;99.90;;;;;;5052925;28;20036;-78
2022/07/02 01:54:24;;;;;;;6.25;3.67;;;13.10;99.90;;;;;;5036273;28;20052;-78
2022/07/02 01:56:50;;;;;;;5.93;3.78;;;13.00;99.90;;;;;;5070848;28;20032;-78
2022/07/02 01:59:16;;;;;;;8.90;3.85;;;13.20;99.90;;;;;;5052932;28;20036;-78
2022/07/02 02:01:43;;;;;;;5.80;3.55;;;13.00;99.90;;;;;;5052438;28;20473;-79
2022/07/02 02:04:09;;;;;;;7.70;3.90;;;13.00;99.90;;;;;;5036288;28;20051;-80
2022/07/02 02:06:37;;;;;;;8.88;4.07;;;13.00;99.90;;;;;;5036483;28;20036;-80
2022/07/02 02:09:03;;;;;;;6.72;3.65;;;13.00;99.90;;;;;;5037516;28;20091;-80
2022/07/02 02:11:29;;;;;;;7.05;3.67;;;13.00;99.90;;;;;;5054145;28;20049;-80
2022/07/02 02:13:58;;;;;;;7.28;4.28;;;12.90;99.90;;;;;;5077994;28;20093;-80
2022/07/02 02:16:27;;;;;;;10.63;4.35;;;12.90;99.90;;;;;;5060426;28;20145;-80
2022/07/02 02:18:55;;;;;;;8.68;4.15;;;13.10;99.90;;;;;;5060336;28;20427;-80
2022/07/02 02:21:21;;;;;;;7.15;4.10;;;13.00;99.90;;;;;;5060860;28;20416;-80
2022/07/02 02:23:47;;;;;;;9.85;4.13;;;12.90;99.90;;;;;;5060423;28;20037;-80
2022/07/02 02:26:13;;;;;;;6.47;3.83;;;13.00;99.90;;;;;;5060489;28;20059;-80
2022/07/02 02:28:38;;;;;;;7.93;3.88;;;12.90;99.90;;;;;;5060663;28;20059;-80
2022/07/02 02:31:04;;;;;;;6.68;4.65;;;12.90;99.90;;;;;;5078162;28;20566;-80
2022/07/02 02:33:30;;;;;;;7.45;4.07;;;12.90;99.90;;;;;;5044036;28;20067;-80
2022/07/02 02:35:55;;;;;;;7.30;4.00;;;12.90;99.90;;;;;;5060382;28;20557;-80
2022/07/02 02:38:21;;;;;;;5.25;4.07;;;12.90;99.90;;;;;;5078329;28;20082;-80
2022/07/02 02:40:47;;;;;;;6.55;3.50;;;13.00;99.90;;;;;;5060564;28;20044;-78
2022/07/02 02:43:12;;;;;;;12.80;5.43;;;12.80;99.90;;;;;;5043684;28;20086;-79
2022/07/02 02:45:38;;;;;;;7.95;4.20;;;12.80;99.90;;;;;;5059691;28;20036;-78
2022/07/02 02:48:04;;;;;;;11.73;4.32;;;12.80;99.90;;;;;;5059928;28;20052;-78
2022/07/02 02:50:29;;;;;;;8.38;4.30;;;12.80;99.90;;;;;;5042815;28;20068;-77
2022/07/02 02:52:55;;;;;;;9.52;4.03;;;12.80;99.90;;;;;;5060458;28;20593;-78
2022/07/02 02:55:20;;;;;;;13.00;4.70;;;12.70;99.90;;;;;;5077577;28;20040;-80
2022/07/02 02:57:46;;;;;;;6.40;3.75;;;12.60;99.90;;;;;;5077812;28;20498;-78
2022/07/02 03:00:12;;;;;;;10.57;5.55;;;12.60;99.90;;;;;;5059494;28;20044;-78
2022/07/02 03:02:38;;;;;;;7.60;4.50;;;12.70;99.90;;;;;;5043732;28;20154;-78
2022/07/02 03:05:03;;;;;;;7.38;4.30;;;12.70;99.90;;;;;;5059744;28;20040;-78
2022/07/02 03:07:29;;;;;;;6.13;4.70;;;12.60;99.90;;;;;;5059608;28;20037;-79
2022/07/02 03:09:55;;;;;;;10.13;4.20;;;12.50;99.90;;;;;;5059669;28;20471;-77
2022/07/02 03:12:20;;;;;;;6.18;4.53;;;12.50;99.90;;;;;;5043388;28;20044;-78
2022/07/02 03:14:46;;;;;;;5.22;3.75;;;12.40;99.90;;;;;;5059844;28;20037;-78
2022/07/02 03:17:12;;;;;;;6.07;3.70;;;12.50;99.90;;;;;;5059743;28;20040;-78
2022/07/02 03:19:37;;;;;;;7.25;3.92;;;12.50;99.90;;;;;;5059769;28;20039;-79
2022/07/02 03:22:03;;;;;;;7.45;4.20;;;12.40;99.90;;;;;;5059917;28;20056;-77
2022/07/02 03:24:29;;;;;;;7.20;3.92;;;12.40;99.90;;;;;;5057462;28;20041;-77
2022/07/02 03:26:54;;;;;;;6.72;3.85;;;12.50;99.90;;;;;;5039559;28;20089;-78
2022/07/02 03:29:20;;;;;;;7.95;4.43;;;12.40;99.90;;;;;;5039509;28;20041;-77
2022/07/02 03:31:45;;;;;;;8.32;4.55;;;12.40;99.90;;;;;;5056015;28;20094;-80
2022/07/02 03:34:11;;;;;;;6.57;3.90;;;12.40;99.90;;;;;;5039879;28;20048;-77
2022/07/02 03:36:37;;;;;;;7.28;4.32;;;12.30;99.90;;;;;;5074288;28;20039;-77
2022/07/02 03:39:02;;;;;;;7.57;4.30;;;12.40;99.90;;;;;;5063043;28;20091;-77
2022/07/02 03:41:28;;;;;;;5.97;4.00;;;12.40;99.90;;;;;;5099823;28;20025;-80
2022/07/02 03:43:53;;;;;;;5.93;4.13;;;12.40;99.90;;;;;;5081580;28;20060;-82
2022/07/02 03:46:19;;;;;;;6.78;4.68;;;12.50;99.90;;;;;;5077573;28;20536;-78
2022/07/02 03:48:45;;;;;;;7.00;4.63;;;12.50;99.90;;;;;;5074046;28;20033;-78
2022/07/02 03:51:10;;;;;;;7.32;4.43;;;12.50;99.90;;;;;;5056034;28;20047;-79
2022/07/02 03:53:36;;;;;;;8.85;4.55;;;12.50;99.90;;;;;;5039259;28;20039;-80
2022/07/02 03:56:02;;;;;;;7.32;5.00;;;12.50;99.90;;;;;;5055857;28;20373;-78
2022/07/02 03:58:30;;;;;;;7.50;4.82;;;12.50;99.90;;;;;;5073894;28;20548;-78
2022/07/02 04:00:56;;;;;;;10.18;4.95;;;12.40;99.90;;;;;;5038892;28;20545;-81
2022/07/02 04:03:22;;;;;;;4.90;4.40;;;12.50;99.90;;;;;;5073689;28;20028;-81
2022/07/02 04:05:47;;;;;;;7.97;5.00;;;12.40;99.90;;;;;;5039398;28;20065;-80
2022/07/02 04:08:13;;;;;;;6.93;4.53;;;12.50;99.90;;;;;;5039017;28;20055;-80
2022/07/02 04:10:39;;;;;;;8.02;5.10;;;12.50;99.90;;;;;;5055093;28;20074;-80
2022/07/02 04:13:04;;;;;;;6.70;5.05;;;12.60;99.90;;;;;;5055546;28;20048;-80
2022/07/02 04:15:30;;;;;;;10.23;5.03;;;12.50;99.90;;;;;;5054814;28;20060;-80
2022/07/02 04:17:56;;;;;;;7.82;5.20;;;12.60;99.90;;;;;;5055694;28;20059;-80
2022/07/02 04:20:21;;;;;;;7.35;4.97;;;12.60;99.90;;;;;;5055134;28;20088;-79
2022/07/02 04:22:47;;;;;;;9.40;5.15;;;12.60;99.90;;;;;;5038436;28;20091;-80
2022/07/02 04:25:13;;;;;;;18.35;6.30;;;12.70;99.90;;;;;;5038548;28;20064;-80
2022/07/02 04:27:38;;;;;;;10.55;5.32;;;12.70;99.90;;;;;;5038452;28;20082;-80
2022/07/02 04:30:04;;;;;;;7.10;5.50;;;12.70;99.90;;;;;;5038123;28;20041;-80
2022/07/02 04:32:30;;;;;;;10.05;5.50;;;12.80;99.90;;;;;;5038544;28;20079;-79
2022/07/02 04:34:56;;;;;;;16.17;6.50;;;12.80;99.90;;;;;;5054280;28;20079;-80
2022/07/02 04:37:21;;;;;;;11.13;6.13;;;12.80;99.90;;;;;;5055339;28;20111;-80
2022/07/02 04:39:47;;;;;;;8.75;5.53;;;13.00;99.90;;;;;;5055783;28;20033;-81
2022/07/02 04:42:12;;;;;;;9.82;5.65;;;12.90;99.90;;;;;;5039243;28;20098;-82
2022/07/02 04:44:38;;;;;;;11.13;5.57;;;13.10;99.90;;;;;;5038816;28;20507;-81
2022/07/02 04:47:04;;;;;;;8.82;5.97;;;13.20;99.90;;;;;;5056402;28;20045;-81
2022/07/02 04:49:32;;;;;;;11.63;5.60;;;13.20;99.90;;;;;;5055621;28;20063;-80
2022/07/02 04:51:58;;;;;;;10.63;5.03;;;13.40;99.90;;;;;;5055590;28;20100;-81
2022/07/02 04:54:24;;;;;;;9.18;5.30;;;13.70;99.90;;;;;;5038746;28;20040;-81
2022/07/02 04:56:50;;;;;;;7.15;5.35;;;14.20;99.90;;;;;;5038897;28;20042;-80
2022/07/02 04:59:16;;;;;;;7.32;4.80;;;14.40;99.90;;;;;;5038916;28;20045;-81
2022/07/02 05:01:41;;;;;;;8.27;5.20;;;14.50;99.90;;;;;;5055260;28;20037;-81
2022/07/02 05:04:07;;;;;;;8.30;4.97;;;14.50;99.90;;;;;;5039337;28;20048;-82
2022/07/02 05:06:33;;;;;;;6.70;4.65;;;14.60;99.90;;;;;;5039273;28;20051;-81
2022/07/02 05:08:58;;;;;;;7.30;4.30;;;14.70;99.90;;;;;;5055245;28;20037;-81
2022/07/02 05:11:24;;;;;;;8.88;5.10;;;14.90;99.90;;;;;;5039027;28;20098;-81
2022/07/02 05:13:50;;;;;;;7.63;4.40;;;15.00;99.90;;;;;;5055504;28;20071;-82
2022/07/02 05:16:16;;;;;;;6.47;4.47;;;15.60;99.90;;;;;;5055699;28;20495;-80
2022/07/02 05:18:42;;;;;;;5.75;4.15;;;16.30;99.90;;;;;;5038979;28;20032;-81
2022/07/02 05:21:08;;;;;;;8.25;3.95;;;17.00;99.90;;;;;;5073653;28;20086;-80
2022/07/02 05:23:34;;;;;;;7.13;4.22;;;17.70;99.90;;;;;;5038829;28;20041;-80
2022/07/02 05:26:00;;;;;;;6.20;3.67;;;18.20;99.90;;;;;;5055579;28;20123;-80
2022/07/02 05:28:25;;;;;;;6.00;3.47;;;18.50;99.90;;;;;;5039026;28;20099;-81
2022/07/02 05:30:51;;;;;;;5.63;3.65;;;18.90;99.90;;;;;;5055000;28;20077;-80
2022/07/02 05:33:18;;;;;;;6.18;3.85;;;19.30;99.90;;;;;;5054925;28;20036;-80
2022/07/02 05:35:43;;;;;;;6.68;3.47;;;19.60;99.90;;;;;;5038633;28;20508;-80
2022/07/02 05:38:09;;;;;;;6.30;3.63;;;19.90;99.90;;;;;;5055138;28;20036;-80
2022/07/02 05:40:35;;;;;;;7.00;3.20;;;20.20;99.90;;;;;;5071591;28;20036;-80
2022/07/02 05:43:01;;;;;;;3.53;3.13;;;20.40;99.90;;;;;;5053870;28;20112;-80
2022/07/02 05:45:27;;;;;;;4.97;3.42;;;20.60;99.90;;;;;;5053699;28;20072;-81
2022/07/02 05:47:53;;;;;;;5.28;3.05;;;20.70;99.90;;;;;;5054123;28;20670;-80
2022/07/02 05:50:19;;;;;;;6.07;3.10;;;20.80;99.90;;;;;;5053693;28;20123;-80
2022/07/02 05:52:45;;;;;;;4.70;2.78;;;20.90;99.90;;;;;;5037426;28;20044;-80
2022/07/02 05:55:10;;;;;;;6.60;3.10;;;21.10;99.90;;;;;;5054071;28;20040;-80
2022/07/02 05:57:37;;;;;;;5.18;2.72;;;21.20;99.90;;;;;;5054578;28;20036;-81
2022/07/02 06:00:05;;;;;;;4.68;2.45;;;21.40;99.90;;;;;;5053892;28;20036;-79
2022/07/02 06:02:30;;;;;;;4.20;2.30;;;21.30;99.90;;;;;;5037713;28;20116;-80
2022/07/02 06:04:56;;;;;;;7.47;3.10;;;20.90;99.90;;;;;;5054444;28;20507;-80
2022/07/02 06:07:40;;;;;;;4.28;2.00;;;20.50;99.90;;;;;;5054265;28;20059;-79
2022/07/02 06:10:07;;;;;;;3.25;2.60;;;20.40;99.90;;;;;;5054282;28;20056;-78
2022/07/02 06:12:33;;;;;;;4.35;2.47;;;20.70;99.90;;;;;;5054238;28;20115;-78
2022/07/02 06:14:58;;;;;;;5.00;2.38;;;21.10;99.90;;;;;;5054413;28;20048;-79
2022/07/02 06:17:24;;;;;;;3.65;2.50;;;21.40;99.90;;;;;;5054434;28;20036;-78
2022/07/02 06:19:51;;;;;;;3.47;2.42;;;21.80;99.90;;;;;;5054137;28;20040;-79
2022/07/02 06:22:17;;;;;;;5.32;2.38;;;22.00;99.90;;;;;;5054019;28;20046;-80
2022/07/02 06:24:45;;;;;;;3.25;2.45;;;22.10;99.90;;;;;;5055097;28;20041;-80
2022/07/02 06:27:11;;;;;;;3.83;2.20;;;22.30;99.90;;;;;;5055277;28;20048;-80
2022/07/02 06:29:37;;;;;;;3.30;2.17;;;22.50;99.90;;;;;;5038158;28;20128;-81
2022/07/02 06:32:03;;;;;;;5.70;2.25;;;22.60;99.90;;;;;;5056619;28;20149;-81
2022/07/02 06:34:28;;;;;;;5.75;2.20;;;22.80;99.90;;;;;;5056671;28;20091;-81
2022/07/02 06:36:54;;;;;;;6.00;3.10;;;22.90;99.90;;;;;;5074279;28;20431;-81
2022/07/02 06:39:20;;;;;;;2.78;1.90;;;23.00;99.90;;;;;;5073847;28;20510;-81
2022/07/02 06:44:29;;;;;;;2.83;1.60;;;23.30;99.70;;;;;;5056223;28;20060;-81
2022/07/02 06:46:55;;;;;;;5.70;2.28;;;23.40;99.00;;;;;;5055964;28;20036;-81
2022/07/02 06:49:20;;;;;;;2.90;1.52;;;23.50;98.10;;;;;;5037788;28;20045;-81
2022/07/02 06:51:46;;;;;;;4.28;1.70;;;23.60;96.90;;;;;;5037706;28;20822;-79
2022/07/02 06:54:12;;;;;;;2.42;1.42;;;23.60;95.70;;;;;;5072091;28;20047;-80
2022/07/02 06:56:37;;;;;;;5.05;1.40;;;23.60;94.50;;;;;;5054089;28;20086;-81
2022/07/02 06:59:04;;;;;;;4.13;1.75;;;23.60;94.30;;;;;;5039609;28;20144;-81
2022/07/02 07:01:30;;;;;;;4.05;1.55;;;23.90;93.70;;;;;;5041153;28;20074;-80
2022/07/02 07:03:55;;;;;;;3.55;1.40;;;23.90;92.60;;;;;;5057811;28;20116;-81
2022/07/02 07:06:22;;;;;;;3.55;1.30;;;24.10;92.20;;;;;;5058626;28;20697;-82
2022/07/02 07:08:52;;;;;;;5.30;1.33;;;24.20;91.70;;;;;;5077816;28;20091;-82
2022/07/02 07:11:21;;;;;;;5.05;1.23;;;24.30;90.40;;;;;;5051683;28;20052;-81
2022/07/02 07:13:48;;;;;;;2.05;1.02;;;24.20;89.00;;;;;;5054797;28;20066;-80
2022/07/02 07:16:14;;;;;;;5.20;1.50;;;24.30;89.50;;;;;;5051309;28;20132;-81
2022/07/02 07:18:40;;;;;;;4.53;1.50;;;24.40;88.70;;;;;;5040826;28;20067;-81
2022/07/02 07:21:05;;;;;;;2.53;1.27;;;24.50;87.40;;;;;;5050198;28;20400;-81
2022/07/02 07:23:31;;;;;;;2.10;1.35;;;24.60;83.70;;;;;;5059368;28;20048;-81
2022/07/02 07:25:57;;;;;;;3.38;1.17;;;24.70;82.10;;;;;;5060295;28;20063;-82
2022/07/02 07:28:26;;;;;;;1.85;1.10;;;24.70;79.50;;;;;;5041063;28;20415;-81
2022/07/02 07:30:53;;;;;;;3.20;1.20;;;24.60;80.60;;;;;;5059052;28;20048;-80
2022/07/02 07:33:19;;;;;;;3.53;1.35;;;24.60;79.30;;;;;;5042398;28;20055;-80
2022/07/02 07:35:45;;;;;;;3.22;1.20;;;24.70;80.80;;;;;;5095129;28;20037;-81
2022/07/02 07:38:11;;;;;;;2.08;1.00;;;24.80;80.00;;;;;;5057701;28;20040;-80
2022/07/02 07:40:36;;;;;;;3.67;1.20;;;24.70;80.20;;;;;;5087984;28;20033;-82
2022/07/02 07:43:03;;;;;;;3.35;1.10;;;24.20;80.30;;;;;;5060789;28;20033;-81
2022/07/02 07:45:29;;;;;;;1.55;0.90;;;23.50;82.40;;;;;;5053791;28;20052;-81
2022/07/02 07:47:55;;;;;;;3.03;1.10;;;22.90;84.20;;;;;;5033892;28;20036;-81
2022/07/02 07:50:20;;;;;;;2.83;1.00;;;22.40;86.60;;;;;;5073516;28;20150;-82
2022/07/02 07:52:46;;;;;;;6.90;1.40;;;22.10;88.40;;;;;;5037880;28;20100;-81
2022/07/02 07:55:12;;;;;;;2.42;1.00;;;22.00;90.70;;;;;;5036285;28;20498;-81
2022/07/02 07:57:37;;;;;;;3.60;1.33;;;22.10;90.90;;;;;;5038437;28;20407;-81
2022/07/02 08:00:04;;;;;;;3.25;1.33;;;22.50;91.10;;;;;;5045434;28;20040;-80
2022/07/02 08:02:30;;;;;;;5.50;1.20;;;23.00;91.30;;;;;;5066008;28;20078;-81
2022/07/02 08:04:56;;;;;;;2.58;1.08;;;23.50;90.90;;;;;;5068137;28;20037;-81
2022/07/02 08:07:21;;;;;;;3.00;0.68;;;23.80;88.60;;;;;;5037993;28;20045;-81
2022/07/02 08:09:53;;;;;;;3.70;0.90;;;24.00;83.30;;;;;;5038311;28;20049;-79
2022/07/02 08:12:20;;;;;;;2.47;0.90;;;24.00;80.40;;;;;;5047112;28;20051;-80
2022/07/02 08:14:46;;;;;;;4.20;0.88;;;24.00;77.60;;;;;;5036069;28;20488;-80
2022/07/02 08:17:11;;;;;;;2.42;0.85;;;24.00;78.80;;;;;;5036725;28;20045;-81
2022/07/02 08:19:37;;;;;;;1.13;0.93;;;24.20;78.10;;;;;;5052896;28;20037;-80
2022/07/02 08:22:03;;;;;;;3.95;1.27;;;24.30;78.00;;;;;;5054172;28;20045;-80
2022/07/02 08:24:29;;;;;;;1.58;0.65;;;24.40;75.80;;;;;;5041164;28;20045;-80
2022/07/02 08:26:56;;;;;;;3.03;0.82;;;24.50;76.40;;;;;;5033573;28;20048;-81
2022/07/02 08:29:21;;;;;;;1.17;0.77;;;24.50;74.60;;;;;;5037061;28;20089;-81
2022/07/02 08:31:47;;;;;;;3.63;0.50;;;24.70;73.30;;;;;;5033717;28;20433;-81
2022/07/02 08:34:13;;;;;;;3.70;0.50;;;24.80;74.00;;;;;;5053910;28;20223;-80
2022/07/02 08:36:39;;;;;;;2.90;0.95;;;24.90;74.90;;;;;;5072535;28;20486;-81
2022/07/02 08:39:05;;;;;;;3.72;0.47;;;25.10;72.40;;;;;;5038063;28;20045;-82
2022/07/02 08:41:31;;;;;;;1.77;0.63;;;25.10;72.30;;;;;;5052631;28;20042;-83
2022/07/02 08:43:59;;;;;;;2.05;0.50;;;25.30;73.00;;;;;;5034602;28;20055;-82
2022/07/02 08:46:26;;;;;;;3.63;0.57;;;25.30;70.80;;;;;;5054037;28;20036;-81
2022/07/02 08:48:53;;;;;;;3.58;1.83;;;25.40;69.40;;;;;;5037182;28;20086;-82
2022/07/02 08:51:22;;;;;;;1.85;0.68;;;25.30;68.90;;;;;;5072538;28;20032;-82
2022/07/02 08:53:48;;;;;;;3.17;0.55;;;25.30;66.30;;;;;;5054320;28;20032;-81
2022/07/02 08:56:14;;;;;;;1.05;0.60;;;25.40;66.30;;;;;;5054337;28;20480;-81
2022/07/02 08:58:40;;;;;;;1.88;0.85;;;25.50;67.50;;;;;;5038266;28;20036;-81
2022/07/02 09:01:44;;;;;;;2.63;0.63;;;25.60;65.50;;;;;;5053364;28;20089;-80
2022/07/02 09:04:10;;;;;;;3.08;0.60;;;25.50;61.00;;;;;;5036869;28;20113;-80
2022/07/02 09:06:37;;;;;;;1.20;0.55;;;25.40;66.30;;;;;;5036395;28;20032;-81
2022/07/02 09:09:03;;;;;;;2.47;0.40;;;25.60;64.90;;;;;;5034157;28;20488;-80
2022/07/02 09:11:30;;;;;;;1.55;0.55;;;25.60;62.80;;;;;;5064546;28;20081;-81
2022/07/02 09:13:57;;;;;;;0.75;0.30;;;25.70;62.30;;;;;;5070347;28;20060;-80
2022/07/02 09:16:23;;;;;;;1.30;0.40;;;25.70;61.20;;;;;;5051201;28;20040;-80
2022/07/02 09:18:49;;;;;;;0.38;0.30;;;25.70;60.10;;;;;;5053319;28;20399;-79
2022/07/02 09:21:15;;;;;;;3.75;0.50;;;25.70;60.60;;;;;;5043611;28;20049;-80
2022/07/02 09:23:48;;;;;;;2.28;0.50;;;25.80;59.40;;;;;;5038050;28;20032;-79
2022/07/02 09:26:21;;;;;;;1.33;0.60;;;25.80;57.20;;;;;;5038867;28;20037;-81
2022/07/02 09:29:01;;;;;;;1.98;0.40;;;25.70;57.70;;;;;;5023352;28;20068;-80
2022/07/02 09:31:28;;;;;;;0.77;0.32;;;25.70;56.20;;;;;;5050028;28;20049;-80
2022/07/02 09:33:54;;;;;;;2.28;0.30;;;25.70;56.90;;;;;;5024407;28;20097;-78
2022/07/02 09:36:20;;;;;;;2.15;0.60;;;25.80;56.60;;;;;;5047795;28;20115;-80
2022/07/02 09:38:48;;;;;;;3.17;0.43;;;25.80;56.00;;;;;;5042473;28;20166;-80
2022/07/02 09:41:18;;;;;;;2.67;0.77;;;25.90;55.80;;;;;;5033028;28;20051;-79
2022/07/02 09:43:45;;;;;;;1.48;0.30;;;25.90;56.80;;;;;;5048600;28;20040;-81
2022/07/02 09:46:18;;;;;;;1.85;0.28;;;26.00;56.30;;;;;;5033220;28;20036;-81
2022/07/02 09:48:45;;;;;;;1.55;0.43;;;26.10;56.30;;;;;;5025729;28;20037;-78
2022/07/02 09:51:11;;;;;;;2.15;0.60;;;26.20;56.30;;;;;;5047194;28;20403;-79
2022/07/02 09:54:08;;;;;;;3.85;1.40;;;26.30;57.30;;;;;;5047057;28;20033;-79
2022/07/02 09:56:34;;;;;;;2.72;0.70;;;26.30;54.20;;;;;;5012431;28;20053;-81
2022/07/02 09:58:59;;;;;;;0.93;0.40;;;26.30;56.60;;;;;;5044031;28;20081;-80
2022/07/02 10:01:25;;;;;;;2.05;0.35;;;26.40;55.70;;;;;;5052993;28;20052;-82
2022/07/02 10:03:53;;;;;;;2.70;0.60;;;26.60;55.40;;;;;;5053476;28;20043;-81
2022/07/02 10:06:20;;;;;;;1.65;0.50;;;26.60;55.30;;;;;;5070680;28;20040;-81
2022/07/02 10:08:47;;;;;;;3.88;0.82;;;26.70;56.70;;;;;;5053199;28;20586;-81
2022/07/02 10:11:14;;;;;;;1.13;0.50;;;26.80;56.30;;;;;;5050640;28;20090;-83
2022/07/02 10:13:41;;;;;;;1.65;0.50;;;26.80;54.20;;;;;;5036501;28;20036;-82
2022/07/02 10:16:17;;;;;;;1.13;0.50;;;27.00;53.90;;;;;;5035816;28;20047;-82
2022/07/02 10:18:44;;;;;;;2.88;0.52;;;27.30;52.40;;;;;;5052950;28;20043;-81
2022/07/02 10:21:14;;;;;;;4.35;0.98;;;27.50;53.30;;;;;;5069235;28;20051;-81
2022/07/02 10:23:44;;;;;;;3.03;0.40;;;27.60;53.70;;;;;;5063761;28;20436;-82
2022/07/02 10:26:13;;;;;;;1.80;0.70;;;27.60;52.60;;;;;;5070572;28;20036;-80
2022/07/02 10:28:39;;;;;;;2.67;0.65;;;27.50;54.70;;;;;;5053563;28;20047;-80
2022/07/02 10:31:08;;;;;;;1.08;0.55;;;27.40;54.80;;;;;;5045250;28;20039;-81
2022/07/02 10:33:45;;;;;;;1.48;0.90;;;27.20;53.20;;;;;;5053222;28;20037;-80
2022/07/02 10:36:14;;;;;;;0.57;0.50;;;26.90;53.30;;;;;;5047368;28;20078;-81
2022/07/02 10:38:40;;;;;;;1.38;0.50;;;26.60;53.30;;;;;;5057369;28;20548;-81
2022/07/02 10:41:09;;;;;;;2.47;0.40;;;26.30;54.50;;;;;;5041277;28;20691;-80
2022/07/02 10:43:38;;;;;;;0.77;0.50;;;25.80;54.20;;;;;;5056328;28;20106;-81
2022/07/02 10:46:11;;;;;;;2.13;0.50;;;25.60;55.40;;;;;;5027288;28;20041;-81
2022/07/02 10:49:05;;;;;;;3.40;0.77;;;25.40;56.30;;;;;;5049115;28;20174;-81
2022/07/02 10:51:38;;;;;;;0.90;0.60;;;25.10;55.30;;;;;;5064981;28;20056;-80
2022/07/02 10:54:05;;;;;;;1.00;0.50;;;24.90;56.00;;;;;;5028826;28;20492;-79
2022/07/02 10:56:44;;;;;;;1.65;0.50;;;24.60;56.70;;;;;;5063806;28;20067;-80
2022/07/02 10:59:25;;;;;;;1.92;0.40;;;24.50;57.80;;;;;;5056060;28;20426;-77
2022/07/02 11:02:08;;;;;;;1.88;0.60;;;24.20;58.30;;;;;;5055270;28;20040;-81
2022/07/02 11:04:35;;;;;;;1.20;0.47;;;24.00;59.20;;;;;;5031229;28;20037;-81
2022/07/02 11:07:12;;;;;;;1.92;0.40;;;24.00;59.10;;;;;;5039759;28;20491;-81
2022/07/02 11:09:57;;;;;;;1.45;0.47;;;24.00;60.60;;;;;;5020707;28;20434;-80
2022/07/02 11:12:50;;;;;;;1.33;0.50;;;24.10;59.90;;;;;;5030401;28;20083;-81
2022/07/02 11:15:18;;;;;;;1.38;0.52;;;24.10;60.10;;;;;;5040166;28;20414;-80
2022/07/02 11:17:48;;;;;;;5.10;0.60;;;24.10;60.80;;;;;;5037408;28;20036;-81
2022/07/02 11:20:14;;;;;;;3.22;0.57;;;24.20;61.10;;;;;;5049783;28;20040;-80
2022/07/02 11:22:39;;;;;;;1.48;0.50;;;24.20;61.30;;;;;;5075380;28;20422;-81
2022/07/02 11:25:06;;;;;;;1.88;0.85;;;24.30;59.80;;;;;;5075814;28;20041;-81
2022/07/02 11:27:32;;;;;;;3.28;0.57;;;24.50;59.10;;;;;;5057076;28;20110;-80
2022/07/02 11:29:57;;;;;;;2.67;0.60;;;24.90;58.30;;;;;;5049785;28;20496;-81
2022/07/02 11:32:23;;;;;;;2.70;0.82;;;25.40;57.30;;;;;;5037695;28;20045;-80
2022/07/02 11:34:58;;;;;;;1.15;0.77;;;25.70;57.00;;;;;;5068565;28;20040;-81
2022/07/02 11:37:24;;;;;;;1.35;0.47;;;26.00;56.40;;;;;;5069538;28;20036;-80
2022/07/02 11:39:50;;;;;;;4.13;0.68;;;25.80;56.50;;;;;;5056444;28;20040;-80
2022/07/02 11:42:16;;;;;;;1.63;0.70;;;25.50;55.70;;;;;;5056963;28;20041;-80
2022/07/02 11:44:41;;;;;;;3.65;0.50;;;25.30;56.70;;;;;;5055654;28;20109;-81
2022/07/02 11:47:08;;;;;;;3.85;0.70;;;25.10;57.80;;;;;;5056344;28;20535;-81
2022/07/02 11:49:34;;;;;;;1.50;0.65;;;25.40;57.70;;;;;;5039096;28;20494;-79
2022/07/02 11:52:00;;;;;;;1.75;0.50;;;25.60;57.40;;;;;;5056552;28;20044;-81
2022/07/02 11:54:26;;;;;;;3.20;0.70;;;25.70;57.70;;;;;;5056734;28;20553;-81
2022/07/02 11:56:53;;;;;;;2.85;0.57;;;25.50;57.30;;;;;;5056613;28;20048;-81
2022/07/02 11:59:21;;;;;;;1.85;0.50;;;25.30;57.20;;;;;;5039714;28;20041;-82
2022/07/02 12:01:49;;;;;;;2.88;0.75;;;25.00;57.50;;;;;;5039241;28;20037;-82
2022/07/02 12:04:17;;;;;;;0.70;0.30;;;24.90;57.90;;;;;;5039478;28;20090;-82
2022/07/02 12:06:45;;;;;;;1.80;0.50;;;24.90;58.90;;;;;;5055905;28;20530;-82
2022/07/02 12:09:14;;;;;;;6.15;1.15;;;25.00;58.50;;;;;;5039389;28;20036;-82
2022/07/02 12:11:44;;;;;;;0.82;0.40;;;25.00;58.50;;;;;;5055663;28;20551;-82
2022/07/02 12:14:11;;;;;;;2.10;0.43;;;24.90;57.00;;;;;;5056105;28;20060;-82
2022/07/02 12:16:39;;;;;;;2.17;0.52;;;24.80;58.60;;;;;;5055879;28;20040;-82
2022/07/02 12:19:10;;;;;;;2.90;0.40;;;24.70;58.10;;;;;;5038913;28;20040;-83
2022/07/02 12:21:41;;;;;;;1.48;0.55;;;24.70;59.20;;;;;;5055413;28;20055;-80
2022/07/02 12:24:22;;;;;;;0.77;0.47;;;24.60;60.40;;;;;;5039474;28;20036;-81
2022/07/02 12:26:53;;;;;;;2.83;0.73;;;24.60;62.80;;;;;;5055458;28;20520;-80
2022/07/02 12:32:14;;;;;;;8.35;0.90;;;24.60;60.50;;;;;;5077388;28;20084;-82
2022/07/02 12:34:45;;;;;;;1.52;0.57;;;24.90;59.80;;;;;;5060100;28;20100;-81
2022/07/02 12:37:28;;;;;;;1.55;0.40;;;25.00;59.70;;;;;;5071022;28;20037;-82
2022/07/02 12:40:00;;;;;;;2.67;0.50;;;25.00;60.70;;;;;;5055031;28;20462;-81
2022/07/02 12:42:27;;;;;;;1.23;0.50;;;24.90;59.50;;;;;;5054971;28;20080;-81
2022/07/02 12:45:07;;;;;;;2.10;0.70;;;24.70;60.20;;;;;;5038409;28;20107;-81
2022/07/02 12:47:36;;;;;;;1.45;0.70;;;24.70;60.10;;;;;;5054317;28;20040;-81
2022/07/02 12:50:04;;;;;;;1.60;0.50;;;24.70;60.30;;;;;;5038287;28;20036;-81
2022/07/02 12:52:31;;;;;;;1.95;0.60;;;24.60;61.70;;;;;;5054264;28;20040;-81
2022/07/02 12:54:58;;;;;;;2.15;0.75;;;24.70;62.70;;;;;;5054737;28;20083;-81